Due West, South Carolina
Current Conditions -  °F | °C
As of 4:56 AM on Thursday 27 Nov 2014 (Local Time) from KGRD Reporting Station
Clear Clear  
Wind Chill: 38°   Ceiling: Unl
Heat Index: 45°   Visibility: 10mi
Dew Point: 29°   Wind: 15mph
Humidity: 53%   Direction: 260°W
Pressure: 30.03"   Gusts: 24mph
Location:  34.33°N, 82.39°W
Report Text: KGRD 270956Z AUTO 26013G21KT 10SM CLR 07/M02 A3003 RMK AO2 SLP169 T00721017
Loading
Personal Weather Stations






























Interactive Weather Map New forecast layout! Learn more

10-Day Weather Forecast

Advertisements
Track Severe Weather on mobile